Main page
METAR-TAF:

METAR-TAF

Airports :

Damascus International Airport

Damascus, Syria

latitude: 33-25N, longitude: 036-31E, elevation: 608 m

Current weather observation

The report was made 1 hour and 1 minutes ago, at 06:00 UTC
Wind 4 kt from the Northwest
Temperature 22°C
Humidity 60%
Pressure 1012 hPa
Visibility 10 km or more
no clouds below 1500 m and no cumulonimbus

METAR: OSDI 190600Z 32004KT CAVOK 22/14 Q1012

Time: 10:01 (07:01 UTC)

Forecast

The report was made 3 hours and 1 minutes ago, at 04:00 UTC
Forecast valid from 19 at 06 UTC to 20 at 12 UTC
Wind 15 kt from the Southwest
Visibility 10 km or more
no clouds below 1500 m and no cumulonimbus
Temporary
from 19 at 09 UTC to 19 at 18 UTC
Wind 15 kt from the West with gusts up to 25 kt
Visibility 10 km or more
Few clouds at a height of 3000 ft

TAF: OSDI 190400Z 1906/2012 22015KT CAVOK TEMPO 1909/1918 28015G25KT 9999 FEW030

Weather observations and forecasts of more than 4000 airports (METAR and TAF reports).

The available stations are represented by yellow and red dots on the map.

Hover mouse over dot to see the name of the station.

Then click to see weather observations and forecasts.

To change the map : click on the green buttons with a black cross to zoom in, on the green button with a dash to zoom out, or on the green arrows for adjacent maps.


METAR-TAF: